createdAt,value
2022-12-11T00:00:44.401Z,44.31
2022-12-11T00:03:15.609Z,44.16
2022-12-11T00:05:43.132Z,44.34
2022-12-11T00:08:09.777Z,44.05
2022-12-11T00:10:38.082Z,44.23
2022-12-11T00:13:05.281Z,44.42
2022-12-11T00:15:32.133Z,44.41
2022-12-11T00:17:58.699Z,44.28
2022-12-11T00:20:25.332Z,44.58
2022-12-11T00:22:51.875Z,44.50
2022-12-11T00:25:18.453Z,44.20
2022-12-11T00:27:46.758Z,44.21
2022-12-11T00:30:14.409Z,44.26
2022-12-11T00:32:40.988Z,44.29
2022-12-11T00:35:08.070Z,44.57
2022-12-11T00:37:35.058Z,44.31
2022-12-11T00:40:01.663Z,44.65
2022-12-11T00:42:28.183Z,44.66
2022-12-11T00:44:56.347Z,44.45
2022-12-11T00:47:22.884Z,44.42
2022-12-11T00:49:50.184Z,44.32
2022-12-11T00:52:18.047Z,44.75
2022-12-11T00:54:45.057Z,44.52
2022-12-11T00:57:11.598Z,44.42
2022-12-11T00:59:38.372Z,44.49
2022-12-11T01:02:04.898Z,44.72
2022-12-11T01:04:31.471Z,44.60
2022-12-11T01:06:58.005Z,44.59
2022-12-11T01:09:42.835Z,44.37
2022-12-11T01:12:09.399Z,44.61
2022-12-11T01:14:35.938Z,44.69
2022-12-11T01:17:02.624Z,44.70
2022-12-11T01:19:29.247Z,44.65
2022-12-11T01:21:55.818Z,44.74
2022-12-11T01:24:22.567Z,44.54
2022-12-11T01:26:49.081Z,44.80
2022-12-11T01:29:16.025Z,44.50
2022-12-11T01:31:42.555Z,44.49
2022-12-11T01:34:09.073Z,44.54
2022-12-11T01:36:35.618Z,44.38
2022-12-11T01:39:02.204Z,44.82
2022-12-11T01:41:28.727Z,44.69
2022-12-11T01:43:58.002Z,44.64
2022-12-11T01:46:25.342Z,44.65
2022-12-11T01:48:52.646Z,44.74
2022-12-11T01:51:19.163Z,44.58
2022-12-11T01:53:59.568Z,44.38
2022-12-11T01:56:26.911Z,44.60
2022-12-11T01:58:56.426Z,44.71
2022-12-11T02:02:07.740Z,44.83
2022-12-11T02:04:36.187Z,44.61
2022-12-11T02:07:03.644Z,45.03
2022-12-11T02:09:32.926Z,44.93
2022-12-11T02:12:04.051Z,44.82
2022-12-11T02:14:38.678Z,44.82
2022-12-11T02:17:17.415Z,44.86
2022-12-11T02:19:55.967Z,44.68
2022-12-11T02:22:52.555Z,44.75
2022-12-11T02:25:26.173Z,45.02
2022-12-11T02:28:07.559Z,44.73
2022-12-11T02:30:37.300Z,44.83
2022-12-11T02:33:04.039Z,44.95
2022-12-11T02:35:33.739Z,44.81
2022-12-11T02:38:07.556Z,45.01
2022-12-11T02:40:37.307Z,45.00
2022-12-11T02:43:06.817Z,45.19
2022-12-11T02:45:34.436Z,44.88
2022-12-11T02:48:03.695Z,45.05
2022-12-11T02:50:30.524Z,44.91
2022-12-11T02:52:57.732Z,44.89
2022-12-11T02:55:27.210Z,45.03
2022-12-11T02:58:02.288Z,45.27
2022-12-11T03:00:28.808Z,45.09
2022-12-11T03:02:55.393Z,44.74
2022-12-11T03:05:21.938Z,44.98
2022-12-11T03:07:49.225Z,45.11
2022-12-11T03:10:18.979Z,44.96
2022-12-11T03:12:53.199Z,44.99
2022-12-11T03:15:22.572Z,45.10
2022-12-11T03:18:04.171Z,45.20
2022-12-11T03:20:47.953Z,45.31
2022-12-11T03:23:19.147Z,45.15
2022-12-11T03:25:57.459Z,45.20
2022-12-11T03:28:43.616Z,45.49
2022-12-11T03:31:14.009Z,45.24
2022-12-11T03:33:42.348Z,45.31
2022-12-11T03:36:12.671Z,45.34
2022-12-11T03:38:46.120Z,45.46
2022-12-11T03:41:15.222Z,45.30
2022-12-11T03:43:41.855Z,45.22
2022-12-11T03:46:09.364Z,45.03
2022-12-11T03:48:38.326Z,45.17
2022-12-11T03:51:06.566Z,45.15
2022-12-11T03:53:36.694Z,45.29
2022-12-11T03:56:06.417Z,45.36
2022-12-11T03:58:33.297Z,45.27
2022-12-11T04:00:59.812Z,45.29
2022-12-11T04:03:26.404Z,45.11
2022-12-11T04:05:54.192Z,45.31
2022-12-11T04:08:21.795Z,45.33
2022-12-11T04:10:49.067Z,45.17
2022-12-11T04:13:15.610Z,45.40
2022-12-11T04:15:42.176Z,45.34
2022-12-11T04:18:35.653Z,45.22
2022-12-11T04:21:33.976Z,45.28
2022-12-11T04:24:17.290Z,45.10
2022-12-11T04:26:45.138Z,45.40
2022-12-11T04:29:12.106Z,45.18
2022-12-11T04:31:38.645Z,45.19
2022-12-11T04:34:05.205Z,45.41
2022-12-11T04:36:31.751Z,45.31
2022-12-11T04:38:58.316Z,45.44
2022-12-11T04:41:24.835Z,45.38
2022-12-11T04:43:51.400Z,45.46
2022-12-11T04:46:20.598Z,45.20
2022-12-11T04:48:51.225Z,45.12
2022-12-11T04:51:20.479Z,45.57
2022-12-11T04:53:47.004Z,45.34
2022-12-11T04:56:15.127Z,45.10
2022-12-11T04:58:43.320Z,45.36
2022-12-11T05:01:11.538Z,45.16
2022-12-11T05:03:38.200Z,45.32
2022-12-11T05:06:04.880Z,45.49
2022-12-11T05:08:31.415Z,45.39
2022-12-11T05:10:59.440Z,45.34
2022-12-11T05:13:27.534Z,45.26
2022-12-11T05:15:54.114Z,45.16
2022-12-11T05:18:20.926Z,45.17
2022-12-11T05:20:58.280Z,45.14
2022-12-11T05:23:25.456Z,45.29
2022-12-11T05:25:59.685Z,45.39
2022-12-11T05:28:28.083Z,45.29
2022-12-11T05:31:07.419Z,45.38
2022-12-11T05:33:34.344Z,45.60
2022-12-11T05:36:01.388Z,44.94
2022-12-11T05:38:27.910Z,45.21
2022-12-11T05:40:57.843Z,45.63
2022-12-11T05:43:24.591Z,45.49
2022-12-11T05:45:51.104Z,45.28
2022-12-11T05:48:17.643Z,45.52
2022-12-11T05:50:44.159Z,45.16
2022-12-11T05:53:10.682Z,45.31
2022-12-11T05:55:37.303Z,45.40
2022-12-11T05:58:03.871Z,45.35
2022-12-11T06:00:35.745Z,45.39
2022-12-11T06:03:02.801Z,45.09
2022-12-11T06:05:29.428Z,45.46
2022-12-11T06:07:56.007Z,45.21
2022-12-11T06:10:22.637Z,45.39
2022-12-11T06:12:49.152Z,45.54
2022-12-11T06:15:15.694Z,45.39
2022-12-11T06:17:42.207Z,44.94
2022-12-11T06:20:08.979Z,45.19
2022-12-11T06:22:35.490Z,44.95
2022-12-11T06:25:02.018Z,45.16
2022-12-11T06:27:28.532Z,45.21
2022-12-11T06:29:55.884Z,45.48
2022-12-11T06:32:22.490Z,44.89
2022-12-11T06:34:49.009Z,45.01
2022-12-11T06:37:15.525Z,45.18
2022-12-11T06:39:42.079Z,45.15
2022-12-11T06:42:08.590Z,44.98
2022-12-11T06:44:35.124Z,44.88
2022-12-11T06:47:01.655Z,44.94
2022-12-11T06:49:28.180Z,44.75
2022-12-11T06:51:54.698Z,44.79
2022-12-11T06:54:21.268Z,44.99
2022-12-11T06:56:47.795Z,44.66
2022-12-11T06:59:14.582Z,44.89
2022-12-11T07:01:41.115Z,44.62
2022-12-11T07:04:09.279Z,45.07
2022-12-11T07:06:35.799Z,44.17
2022-12-11T07:09:04.542Z,44.77
2022-12-11T07:11:31.059Z,44.75
2022-12-11T07:14:03.420Z,44.46
2022-12-11T07:16:30.003Z,44.81
2022-12-11T07:18:56.559Z,44.80
2022-12-11T07:21:23.217Z,44.96
2022-12-11T07:23:50.233Z,44.54
2022-12-11T07:26:18.988Z,44.98
2022-12-11T07:28:45.819Z,45.43
2022-12-11T07:31:15.866Z,45.74
2022-12-11T07:33:43.049Z,45.44
2022-12-11T07:36:11.563Z,45.14
2022-12-11T07:38:38.804Z,44.76
2022-12-11T07:41:07.264Z,44.49
2022-12-11T07:43:35.261Z,44.39
2022-12-11T07:46:03.308Z,44.04
2022-12-11T07:48:30.043Z,44.24
2022-12-11T07:50:56.730Z,43.83
2022-12-11T07:53:23.281Z,43.85
2022-12-11T07:55:49.932Z,43.95
2022-12-11T07:58:16.463Z,43.99
2022-12-11T08:00:44.948Z,44.10
2022-12-11T08:03:11.531Z,44.02
2022-12-11T08:05:38.094Z,43.99
2022-12-11T08:08:05.461Z,43.97
2022-12-11T08:10:32.201Z,43.88
2022-12-11T08:12:58.746Z,43.99
2022-12-11T08:15:26.492Z,43.96
2022-12-11T08:17:53.039Z,43.89
2022-12-11T08:20:19.559Z,43.95
2022-12-11T08:22:46.080Z,43.98
2022-12-11T08:25:12.949Z,44.05
2022-12-11T08:27:39.608Z,43.94
2022-12-11T08:30:06.748Z,44.03
2022-12-11T08:32:34.268Z,44.04
2022-12-11T08:35:00.962Z,44.18
2022-12-11T08:37:27.930Z,44.42
2022-12-11T08:39:54.449Z,44.53
2022-12-11T08:42:21.096Z,44.42
2022-12-11T08:44:47.626Z,44.55
2022-12-11T08:47:15.437Z,44.36
2022-12-11T08:49:41.999Z,44.58
2022-12-11T08:52:08.515Z,44.53
2022-12-11T08:54:37.250Z,44.55
2022-12-11T08:57:04.156Z,44.29
2022-12-11T08:59:30.671Z,44.38
2022-12-11T09:01:57.207Z,44.50
2022-12-11T09:04:23.724Z,44.25
2022-12-11T09:06:50.297Z,44.22
2022-12-11T09:09:16.828Z,43.99
2022-12-11T09:11:43.630Z,44.10
2022-12-11T09:14:10.171Z,44.15
2022-12-11T09:16:40.230Z,44.12
2022-12-11T09:19:07.931Z,44.04
2022-12-11T09:21:34.667Z,43.91
2022-12-11T09:24:01.667Z,43.86
2022-12-11T09:26:29.043Z,43.92
2022-12-11T09:28:55.880Z,43.88
2022-12-11T09:31:28.008Z,43.99
2022-12-11T09:33:56.940Z,43.82
2022-12-11T09:36:24.285Z,43.73
2022-12-11T09:38:51.006Z,43.62
2022-12-11T09:41:23.417Z,43.73
2022-12-11T09:44:01.716Z,43.72
2022-12-11T09:46:33.799Z,43.73
2022-12-11T09:49:02.123Z,43.64
2022-12-11T09:51:43.095Z,43.62
2022-12-11T09:54:11.526Z,43.48
2022-12-11T09:56:52.615Z,43.48
2022-12-11T09:59:23.065Z,43.47
2022-12-11T10:02:05.979Z,43.51
2022-12-11T10:04:32.442Z,43.60
2022-12-11T10:07:16.684Z,43.36
2022-12-11T10:09:48.876Z,43.38
2022-12-11T10:12:40.091Z,43.30
2022-12-11T10:15:15.836Z,43.31
2022-12-11T10:17:44.671Z,43.40
2022-12-11T10:20:17.245Z,43.50
2022-12-11T10:22:44.375Z,43.50
2022-12-11T10:25:40.811Z,43.40
2022-12-11T10:28:13.528Z,43.55
2022-12-11T10:30:47.151Z,43.47
2022-12-11T10:33:22.084Z,43.58
2022-12-11T10:35:50.440Z,43.53
2022-12-11T10:38:20.544Z,43.29
2022-12-11T10:40:51.363Z,43.53
2022-12-11T10:43:17.924Z,43.31
2022-12-11T10:45:54.784Z,43.31
2022-12-11T10:48:22.192Z,43.35
2022-12-11T10:51:17.901Z,43.42
2022-12-11T10:53:50.118Z,43.60
2022-12-11T10:56:25.373Z,43.59
2022-12-11T10:58:52.150Z,43.61
2022-12-11T11:01:24.715Z,43.50
2022-12-11T11:03:58.773Z,43.49
2022-12-11T11:06:26.467Z,43.52
2022-12-11T11:08:55.660Z,43.51
2022-12-11T11:11:36.645Z,43.42
2022-12-11T11:14:21.334Z,43.51
2022-12-11T11:16:49.861Z,43.48
2022-12-11T11:19:29.747Z,43.32
2022-12-11T11:22:01.665Z,43.13
2022-12-11T11:24:41.960Z,42.90
2022-12-11T11:27:30.318Z,43.42
2022-12-11T11:29:59.979Z,43.18
2022-12-11T11:32:33.332Z,43.20
2022-12-11T11:35:16.602Z,43.24
2022-12-11T11:37:46.465Z,43.15
2022-12-11T11:41:07.695Z,43.19
2022-12-11T11:43:46.458Z,43.13
2022-12-11T11:46:15.724Z,43.00
2022-12-11T11:49:18.886Z,43.08
2022-12-11T11:52:08.173Z,43.00
2022-12-11T11:54:37.607Z,43.05
2022-12-11T11:57:14.163Z,43.03
2022-12-11T11:59:43.624Z,43.14
2022-12-11T12:02:18.339Z,43.14
2022-12-11T12:04:46.454Z,42.94
2022-12-11T12:07:40.009Z,42.95
2022-12-11T12:10:32.138Z,42.94
2022-12-11T12:13:49.009Z,43.06
2022-12-11T12:16:54.232Z,42.88
2022-12-11T12:19:20.793Z,42.92
2022-12-11T12:21:52.138Z,42.86
2022-12-11T12:24:41.462Z,42.75
2022-12-11T12:30:22.937Z,42.88
2022-12-11T12:32:59.384Z,42.94
2022-12-11T12:35:37.219Z,42.99
2022-12-11T12:38:11.304Z,42.88
2022-12-11T12:41:19.644Z,42.95
2022-12-11T12:44:03.998Z,42.88
2022-12-11T12:46:56.556Z,42.87
2022-12-11T12:49:40.565Z,42.95
2022-12-11T12:52:13.696Z,42.81
2022-12-11T12:54:41.188Z,43.07
2022-12-11T12:57:08.043Z,43.13
2022-12-11T12:59:34.570Z,42.88
2022-12-11T13:02:03.422Z,43.05
2022-12-11T13:04:56.038Z,43.09
2022-12-11T13:07:28.443Z,43.17
2022-12-11T13:10:01.521Z,43.08
2022-12-11T13:12:41.793Z,43.16
2022-12-11T13:15:26.528Z,42.95
2022-12-11T13:17:53.650Z,43.02
2022-12-11T13:20:22.666Z,43.07
2022-12-11T13:23:10.628Z,42.98
2022-12-11T13:25:51.387Z,43.25
2022-12-11T13:28:39.546Z,43.08
2022-12-11T13:31:14.941Z,43.17
2022-12-11T13:33:49.332Z,43.22
2022-12-11T13:36:24.137Z,43.20
2022-12-11T13:39:18.177Z,43.18
2022-12-11T13:41:48.204Z,43.30
2022-12-11T13:44:39.954Z,43.08
2022-12-11T13:47:12.120Z,43.17
2022-12-11T13:49:41.484Z,43.16
2022-12-11T13:52:15.187Z,43.46
2022-12-11T13:54:51.825Z,43.42
2022-12-11T13:57:20.991Z,43.27
2022-12-11T13:59:55.188Z,43.28
2022-12-11T14:02:28.602Z,43.29
2022-12-11T14:04:56.737Z,43.03
2022-12-11T14:07:47.221Z,43.16
2022-12-11T14:10:20.403Z,43.11
2022-12-11T14:13:02.868Z,43.20
2022-12-11T14:15:30.692Z,42.88
2022-12-11T14:17:58.153Z,43.14
2022-12-11T14:20:27.876Z,43.10
2022-12-11T14:23:20.391Z,42.97
2022-12-11T14:26:20.878Z,42.96
2022-12-11T14:28:47.479Z,42.84
2022-12-11T14:31:16.983Z,42.92
2022-12-11T14:33:56.258Z,42.91
2022-12-11T14:36:22.949Z,42.99
2022-12-11T14:39:13.592Z,42.65
2022-12-11T14:41:49.899Z,42.67
2022-12-11T14:44:18.276Z,42.94
2022-12-11T14:46:54.374Z,42.70
2022-12-11T14:49:51.152Z,42.81
2022-12-11T14:52:25.187Z,42.83
2022-12-11T14:54:55.268Z,42.98
2022-12-11T14:57:23.906Z,42.72
2022-12-11T14:59:51.619Z,42.81
2022-12-11T15:02:24.454Z,42.73
2022-12-11T15:05:20.188Z,42.97
2022-12-11T15:07:59.108Z,42.81
2022-12-11T15:10:31.244Z,43.09
2022-12-11T15:12:58.653Z,43.65
2022-12-11T15:15:25.581Z,43.10
2022-12-11T15:17:52.989Z,43.11
2022-12-11T15:20:29.694Z,43.07
2022-12-11T15:22:58.704Z,42.97
2022-12-11T15:25:27.463Z,42.93
2022-12-11T15:27:57.002Z,42.77
2022-12-11T15:30:29.459Z,42.82
2022-12-11T15:33:18.646Z,42.85
2022-12-11T15:36:24.856Z,42.95
2022-12-11T15:38:51.401Z,43.05
2022-12-11T15:41:21.462Z,42.89
2022-12-11T15:43:48.100Z,42.97
2022-12-11T15:46:14.753Z,42.78
2022-12-11T15:48:41.337Z,42.88
2022-12-11T15:51:08.679Z,43.01
2022-12-11T15:53:35.461Z,42.78
2022-12-11T15:56:02.145Z,42.90
2022-12-11T15:58:28.982Z,42.81
2022-12-11T16:00:55.586Z,42.85
2022-12-11T16:03:23.540Z,42.92
2022-12-11T16:05:51.781Z,42.83
2022-12-11T16:08:21.667Z,43.05
2022-12-11T16:10:49.027Z,42.90
2022-12-11T16:13:15.558Z,42.89
2022-12-11T16:15:43.933Z,42.84
2022-12-11T16:18:13.444Z,42.68
2022-12-11T16:20:41.663Z,42.96
2022-12-11T16:23:08.592Z,42.80
2022-12-11T16:25:37.644Z,42.72
2022-12-11T16:28:04.475Z,42.64
2022-12-11T16:30:31.252Z,42.80
2022-12-11T16:32:57.840Z,42.68
2022-12-11T16:35:24.416Z,42.68
2022-12-11T16:37:52.412Z,42.64
2022-12-11T16:40:19.754Z,42.55
2022-12-11T16:42:46.685Z,42.62
2022-12-11T16:45:19.475Z,42.43
2022-12-11T16:47:46.080Z,42.49
2022-12-11T16:50:15.138Z,42.51
2022-12-11T16:52:42.358Z,42.60
2022-12-11T16:55:10.700Z,42.87
2022-12-11T16:57:37.561Z,42.52
2022-12-11T17:00:08.872Z,42.48
2022-12-11T17:02:36.319Z,42.54
2022-12-11T17:05:03.043Z,42.47
2022-12-11T17:07:31.714Z,42.62
2022-12-11T17:09:58.404Z,42.49
2022-12-11T17:12:27.909Z,42.62
2022-12-11T17:14:55.613Z,42.65
2022-12-11T17:17:22.203Z,42.73
2022-12-11T17:19:48.721Z,42.77
2022-12-11T17:22:15.296Z,42.79
2022-12-11T17:24:41.811Z,42.50
2022-12-11T17:27:08.363Z,42.46
2022-12-11T17:29:34.946Z,42.71
2022-12-11T17:32:03.196Z,42.54
2022-12-11T17:34:34.626Z,42.55
2022-12-11T17:37:04.426Z,42.63
2022-12-11T17:39:32.368Z,42.47
2022-12-11T17:41:59.016Z,42.64
2022-12-11T17:44:26.681Z,42.70
2022-12-11T17:46:53.575Z,42.49
2022-12-11T17:49:20.214Z,42.64
2022-12-11T17:51:47.939Z,42.90
2022-12-11T17:54:14.578Z,42.67
2022-12-11T17:56:41.369Z,42.72
2022-12-11T17:59:07.983Z,42.79
2022-12-11T18:01:34.732Z,42.85
2022-12-11T18:04:01.928Z,42.77
2022-12-11T18:06:28.888Z,43.06
2022-12-11T18:08:55.443Z,42.97
2022-12-11T18:11:22.200Z,42.94
2022-12-11T18:13:49.762Z,43.16
2022-12-11T18:16:27.066Z,43.00
2022-12-11T18:18:54.039Z,43.51
2022-12-11T18:21:27.275Z,43.69
2022-12-11T18:23:54.403Z,43.65
2022-12-11T18:26:21.796Z,43.80
2022-12-11T18:28:49.052Z,43.68
2022-12-11T18:31:16.094Z,43.85
2022-12-11T18:33:43.682Z,43.81
2022-12-11T18:36:11.056Z,44.09
2022-12-11T18:38:37.727Z,44.49
2022-12-11T18:41:06.262Z,44.99
2022-12-11T18:43:32.792Z,45.16
2022-12-11T18:45:59.325Z,45.38
2022-12-11T18:48:25.997Z,45.14
2022-12-11T18:50:52.747Z,44.41
2022-12-11T18:53:19.615Z,43.88
2022-12-11T18:55:47.939Z,44.16
2022-12-11T18:58:17.264Z,43.95
2022-12-11T19:00:44.835Z,43.91
2022-12-11T19:03:11.961Z,43.81
2022-12-11T19:05:42.382Z,43.96
2022-12-11T19:08:10.415Z,43.71
2022-12-11T19:10:44.716Z,43.69
2022-12-11T19:13:11.768Z,43.34
2022-12-11T19:15:42.680Z,43.47
2022-12-11T19:18:09.868Z,43.53
2022-12-11T19:21:06.447Z,43.70
2022-12-11T19:23:26.866Z,43.60
2022-12-11T19:25:53.415Z,43.41
2022-12-11T19:28:19.936Z,43.36
2022-12-11T19:30:48.803Z,43.41
2022-12-11T19:33:16.286Z,43.57
2022-12-11T19:35:43.175Z,43.49
2022-12-11T19:38:09.735Z,43.42
2022-12-11T19:40:43.625Z,43.19
2022-12-11T19:43:10.767Z,43.15
2022-12-11T19:45:37.354Z,43.10
2022-12-11T19:48:04.068Z,43.43
2022-12-11T19:50:30.643Z,43.51
2022-12-11T19:52:57.236Z,43.51
2022-12-11T19:55:23.798Z,43.27
2022-12-11T19:57:50.359Z,43.50
2022-12-11T20:00:17.128Z,43.41
2022-12-11T20:02:43.763Z,43.49
2022-12-11T20:05:11.246Z,43.59
2022-12-11T20:07:38.696Z,43.52
2022-12-11T20:10:05.811Z,43.56
2022-12-11T20:12:32.642Z,43.46
2022-12-11T20:14:59.185Z,43.37
2022-12-11T20:17:25.752Z,43.23
2022-12-11T20:19:52.327Z,43.13
2022-12-11T20:22:18.856Z,43.44
2022-12-11T20:24:45.707Z,43.37
2022-12-11T20:27:12.575Z,43.34
2022-12-11T20:29:39.286Z,42.95
2022-12-11T20:32:05.974Z,43.73
2022-12-11T20:34:32.576Z,43.49
2022-12-11T20:37:00.279Z,43.61
2022-12-11T20:39:27.090Z,43.66
2022-12-11T20:41:53.686Z,43.44
2022-12-11T20:44:20.386Z,43.38
2022-12-11T20:46:46.938Z,43.38
2022-12-11T20:49:13.467Z,43.46
2022-12-11T20:51:40.311Z,43.34
2022-12-11T20:54:06.995Z,43.58
2022-12-11T20:56:33.562Z,43.38
2022-12-11T20:59:00.661Z,43.48
2022-12-11T21:01:29.145Z,43.52
2022-12-11T21:03:55.855Z,43.56
2022-12-11T21:06:25.320Z,43.50
2022-12-11T21:08:52.891Z,43.48
2022-12-11T21:11:19.567Z,43.85
2022-12-11T21:13:46.079Z,43.52
2022-12-11T21:16:12.683Z,43.48
2022-12-11T21:18:39.826Z,43.86
2022-12-11T21:21:06.642Z,43.92
2022-12-11T21:23:33.299Z,43.86
2022-12-11T21:25:59.847Z,43.66
2022-12-11T21:28:30.628Z,43.82
2022-12-11T21:31:06.724Z,44.18
2022-12-11T21:33:33.522Z,44.06
2022-12-11T21:36:00.755Z,44.21
2022-12-11T21:38:27.711Z,44.36
2022-12-11T21:40:55.436Z,45.25
2022-12-11T21:43:23.853Z,46.41
2022-12-11T21:46:06.499Z,45.50
2022-12-11T21:48:33.331Z,46.37
2022-12-11T21:51:14.378Z,47.13
2022-12-11T21:53:41.238Z,46.46
2022-12-11T21:56:13.626Z,45.96
2022-12-11T21:58:41.503Z,45.98
2022-12-11T22:01:23.038Z,45.63
2022-12-11T22:03:50.678Z,45.18
2022-12-11T22:06:17.571Z,45.31
2022-12-11T22:08:46.495Z,45.28
2022-12-11T22:11:13.803Z,45.22
2022-12-11T22:13:40.318Z,45.51
2022-12-11T22:16:07.016Z,45.30
2022-12-11T22:18:33.631Z,45.17
2022-12-11T22:21:01.000Z,44.84
2022-12-11T22:23:27.559Z,44.99
2022-12-11T22:25:54.849Z,44.86
2022-12-11T22:28:21.511Z,44.96
2022-12-11T22:30:48.336Z,44.88
2022-12-11T22:33:15.247Z,44.87
2022-12-11T22:35:41.765Z,44.79
2022-12-11T22:38:08.358Z,44.71
2022-12-11T22:40:35.340Z,44.66
2022-12-11T22:43:01.871Z,44.78
2022-12-11T22:45:28.407Z,44.58
2022-12-11T22:47:54.925Z,44.82
2022-12-11T22:50:21.467Z,44.32
2022-12-11T22:52:48.043Z,44.53
2022-12-11T22:55:15.401Z,44.62
2022-12-11T22:57:41.943Z,44.32
2022-12-11T23:00:11.210Z,44.24
2022-12-11T23:02:38.469Z,44.33
2022-12-11T23:05:05.944Z,44.44
2022-12-11T23:07:32.979Z,44.26
2022-12-11T23:09:59.520Z,44.33
2022-12-11T23:12:26.049Z,44.46
2022-12-11T23:14:52.567Z,44.40
2022-12-11T23:17:19.152Z,44.41
2022-12-11T23:19:46.128Z,44.63
2022-12-11T23:22:13.248Z,44.36
2022-12-11T23:24:39.823Z,44.52
2022-12-11T23:27:06.362Z,44.32
2022-12-11T23:29:32.895Z,44.28
2022-12-11T23:31:59.443Z,44.00
2022-12-11T23:34:25.958Z,44.22
2022-12-11T23:36:52.510Z,44.06
2022-12-11T23:39:19.101Z,44.13
2022-12-11T23:41:46.289Z,44.11
2022-12-11T23:44:12.839Z,44.29
2022-12-11T23:46:39.509Z,44.29
2022-12-11T23:49:06.071Z,44.05
2022-12-11T23:51:32.587Z,44.12
2022-12-11T23:53:59.154Z,44.17
2022-12-11T23:56:27.855Z,44.21
2022-12-11T23:58:54.946Z,44.07
